createdAt,value
2019-05-10T00:00:20.662Z,97238.75
2019-05-10T00:03:11.339Z,97238.98
2019-05-10T00:06:01.780Z,97225.25
2019-05-10T00:08:45.605Z,97241.59
2019-05-10T00:11:39.823Z,97246.19
2019-05-10T00:14:30.313Z,97245.83
2019-05-10T00:17:13.218Z,97253.32
2019-05-10T00:19:45.179Z,97253.91
2019-05-10T00:22:17.212Z,97256.73
2019-05-10T00:25:03.128Z,97261.77
2019-05-10T00:27:23.311Z,97258.97
2019-05-10T00:29:55.273Z,97258.75
2019-05-10T00:32:27.242Z,97261.77
2019-05-10T00:34:59.602Z,97261.85
2019-05-10T00:37:31.600Z,97268.65
2019-05-10T00:40:04.946Z,97265.00
2019-05-10T00:42:36.905Z,97263.25
2019-05-10T00:45:08.869Z,97264.04
2019-05-10T00:47:40.824Z,97267.73
2019-05-10T00:50:12.897Z,97266.77
2019-05-10T00:52:44.940Z,97271.97
2019-05-10T00:55:19.343Z,97270.98
2019-05-10T00:57:50.940Z,97267.81
2019-05-10T01:00:22.889Z,97268.95
2019-05-10T01:02:54.892Z,97268.95
2019-05-10T01:05:26.890Z,97269.43
2019-05-10T01:07:58.863Z,97273.94
2019-05-10T01:10:30.859Z,97273.71
2019-05-10T01:13:02.821Z,97278.09
2019-05-10T01:15:34.876Z,97286.40
2019-05-10T01:18:06.877Z,97287.91
2019-05-10T01:20:38.846Z,97288.05
2019-05-10T01:23:10.831Z,97287.91
2019-05-10T01:25:42.800Z,97293.25
2019-05-10T01:28:14.776Z,97297.23
2019-05-10T01:30:46.739Z,97299.78
2019-05-10T01:33:18.734Z,97298.22
2019-05-10T01:35:50.697Z,97295.41
2019-05-10T01:38:22.711Z,97300.11
2019-05-10T01:40:54.671Z,97298.69
2019-05-10T01:43:26.634Z,97305.89
2019-05-10T01:45:58.650Z,97308.50
2019-05-10T01:48:30.618Z,97306.17
2019-05-10T01:51:02.590Z,97302.61
2019-05-10T01:53:34.532Z,97309.31
2019-05-10T01:56:06.459Z,97313.56
2019-05-10T01:58:38.445Z,97325.93
2019-05-10T02:01:10.444Z,97328.66
2019-05-10T02:03:42.426Z,97322.36
2019-05-10T02:06:14.393Z,97325.96
2019-05-10T02:08:46.368Z,97326.69
2019-05-10T02:11:18.343Z,97316.88
2019-05-10T02:13:50.343Z,97315.04
2019-05-10T02:16:22.297Z,97316.09
2019-05-10T02:18:54.265Z,97316.09
2019-05-10T02:21:26.229Z,97319.98
2019-05-10T02:23:58.199Z,97319.98
2019-05-10T02:26:30.137Z,97322.86
2019-05-10T02:29:02.098Z,97337.41
2019-05-10T02:31:34.035Z,97338.69
2019-05-10T02:34:06.005Z,97335.63
2019-05-10T02:36:40.691Z,97334.20
2019-05-10T02:39:12.664Z,97344.11
2019-05-10T02:41:44.619Z,97344.92
2019-05-10T02:44:16.576Z,97333.02
2019-05-10T02:46:48.619Z,97321.00
2019-05-10T02:49:20.569Z,97327.21
2019-05-10T02:51:52.550Z,97332.47
2019-05-10T02:54:24.534Z,97330.95
2019-05-10T02:56:57.541Z,97336.01
2019-05-10T02:59:29.807Z,97336.47
2019-05-10T03:02:04.206Z,97334.09
2019-05-10T03:04:36.589Z,97331.73
2019-05-10T03:07:08.582Z,97339.77
2019-05-10T03:09:40.683Z,97343.28
2019-05-10T03:12:23.746Z,97340.84
2019-05-10T03:14:56.976Z,97340.34
2019-05-10T03:17:28.928Z,97347.69
2019-05-10T03:20:01.020Z,97349.23
2019-05-10T03:22:38.608Z,97353.17
2019-05-10T03:25:11.650Z,97351.47
2019-05-10T03:27:43.709Z,97359.53
2019-05-10T03:30:15.674Z,97356.73
2019-05-10T03:32:48.398Z,97361.59
2019-05-10T03:35:20.310Z,97370.30
2019-05-10T03:37:52.479Z,97369.92
2019-05-10T03:40:24.423Z,97370.70
2019-05-10T03:42:56.379Z,97372.78
2019-05-10T03:45:30.165Z,97372.07
2019-05-10T03:48:02.114Z,97380.29
2019-05-10T03:50:34.074Z,97389.53
2019-05-10T03:53:06.075Z,97383.30
2019-05-10T03:55:38.019Z,97386.66
2019-05-10T03:58:09.977Z,97385.91
2019-05-10T04:00:41.924Z,97392.39
2019-05-10T04:03:13.912Z,97390.64
2019-05-10T04:05:45.884Z,97394.22
2019-05-10T04:08:17.886Z,97398.61
2019-05-10T04:10:49.871Z,97396.05
2019-05-10T04:13:21.822Z,97398.46
2019-05-10T04:15:56.757Z,97405.00
2019-05-10T04:18:28.736Z,97400.09
2019-05-10T04:21:00.689Z,97405.36
2019-05-10T04:23:32.769Z,97402.48
2019-05-10T04:26:04.732Z,97402.48
2019-05-10T04:28:36.752Z,97405.28
2019-05-10T04:31:08.729Z,97400.17
2019-05-10T04:33:40.733Z,97410.39
2019-05-10T04:36:13.156Z,97420.27
2019-05-10T04:38:45.250Z,97429.39
2019-05-10T04:41:17.250Z,97419.95
2019-05-10T04:43:49.321Z,97426.08
2019-05-10T04:46:21.277Z,97420.91
2019-05-10T04:48:53.267Z,97427.36
2019-05-10T04:51:25.223Z,97434.66
2019-05-10T04:53:57.194Z,97433.66
2019-05-10T04:56:29.156Z,97431.58
2019-05-10T04:59:01.165Z,97435.27
2019-05-10T05:01:33.308Z,97436.86
2019-05-10T05:04:05.295Z,97435.82
2019-05-10T05:06:37.287Z,97440.53
2019-05-10T05:09:09.286Z,97433.82
2019-05-10T05:11:41.228Z,97442.45
2019-05-10T05:14:13.239Z,97440.50
2019-05-10T05:16:45.247Z,97446.49
2019-05-10T05:19:17.237Z,97457.11
2019-05-10T05:21:49.193Z,97453.82
2019-05-10T05:24:23.069Z,97458.83
2019-05-10T05:26:54.999Z,97461.67
2019-05-10T05:29:26.953Z,97457.34
2019-05-10T05:32:01.397Z,97457.31
2019-05-10T05:34:32.829Z,97454.59
2019-05-10T05:37:04.755Z,97465.17
2019-05-10T05:39:36.747Z,97453.80
2019-05-10T05:42:08.725Z,97452.16
2019-05-10T05:44:40.726Z,97463.96
2019-05-10T05:47:12.754Z,97468.50
2019-05-10T05:49:44.728Z,97468.23
2019-05-10T05:52:16.702Z,97466.77
2019-05-10T05:54:52.851Z,97462.73
2019-05-10T05:57:27.652Z,97467.11
2019-05-10T05:59:57.619Z,97468.69
2019-05-10T06:02:30.283Z,97471.66
2019-05-10T06:05:02.273Z,97473.81
2019-05-10T06:07:38.058Z,97480.14
2019-05-10T06:10:10.094Z,97487.56
2019-05-10T06:12:44.486Z,97482.62
2019-05-10T06:15:23.117Z,97483.03
2019-05-10T06:17:57.241Z,97484.19
2019-05-10T06:20:25.572Z,97486.13
2019-05-10T06:23:06.441Z,97484.64
2019-05-10T06:25:39.713Z,97493.16
2019-05-10T06:28:17.499Z,97488.41
2019-05-10T06:30:39.168Z,97485.00
2019-05-10T06:33:13.274Z,97493.01
2019-05-10T06:35:45.002Z,97488.68
2019-05-10T06:38:17.004Z,97492.72
2019-05-10T06:40:48.988Z,97494.59
2019-05-10T06:43:20.964Z,97497.63
2019-05-10T06:45:53.948Z,97498.77
2019-05-10T06:48:29.569Z,97501.97
2019-05-10T06:51:06.909Z,97502.53
2019-05-10T06:53:34.019Z,97498.94
2019-05-10T06:56:06.021Z,97500.27
2019-05-10T06:58:38.496Z,97498.34
2019-05-10T07:01:10.578Z,97502.98
2019-05-10T07:03:42.582Z,97510.22
2019-05-10T07:06:14.591Z,97512.11
2019-05-10T07:08:51.886Z,97517.43
2019-05-10T07:11:20.527Z,97524.56
2019-05-10T07:13:53.120Z,97519.47
2019-05-10T07:16:26.200Z,97523.82
2019-05-10T07:19:00.633Z,97531.77
2019-05-10T07:21:32.143Z,97533.60
2019-05-10T07:24:04.150Z,97543.11
2019-05-10T07:26:36.113Z,97534.19
2019-05-10T07:29:08.119Z,97535.86
2019-05-10T07:31:41.361Z,97533.50
2019-05-10T07:34:15.805Z,97534.87
2019-05-10T07:36:47.463Z,97530.50
2019-05-10T07:39:19.430Z,97533.45
2019-05-10T07:41:51.386Z,97534.31
2019-05-10T07:44:23.381Z,97534.20
2019-05-10T07:47:00.045Z,97525.67
2019-05-10T07:49:32.564Z,97526.70
2019-05-10T07:52:04.745Z,97529.70
2019-05-10T07:54:37.572Z,97535.85
2019-05-10T07:57:10.647Z,97531.90
2019-05-10T07:59:50.578Z,97526.28
2019-05-10T08:02:16.652Z,97525.48
2019-05-10T08:04:51.307Z,97528.52
2019-05-10T08:07:22.508Z,97536.07
2019-05-10T08:09:54.482Z,97529.04
2019-05-10T08:12:28.820Z,97532.92
2019-05-10T08:15:00.351Z,97533.48
2019-05-10T08:17:35.446Z,97526.38
2019-05-10T08:20:09.054Z,97531.11
2019-05-10T08:22:42.260Z,97533.42
2019-05-10T08:25:15.398Z,97537.06
2019-05-10T08:27:50.822Z,97540.83
2019-05-10T08:30:42.622Z,97543.49
2019-05-10T08:33:14.473Z,97542.39
2019-05-10T08:35:52.473Z,97548.30
2019-05-10T08:38:21.938Z,97551.05
2019-05-10T08:40:54.022Z,97554.37
2019-05-10T08:43:30.797Z,97552.80
2019-05-10T08:46:02.505Z,97554.66
2019-05-10T08:48:38.212Z,97557.62
2019-05-10T08:51:07.815Z,97549.98
2019-05-10T08:53:42.187Z,97551.80
2019-05-10T08:56:21.047Z,97555.52
2019-05-10T08:58:47.615Z,97553.38
2019-05-10T09:01:27.595Z,97557.40
2019-05-10T09:03:59.952Z,97550.16
2019-05-10T09:06:27.389Z,97557.46
2019-05-10T09:09:05.963Z,97559.08
2019-05-10T09:11:33.278Z,97558.22
2019-05-10T09:14:05.271Z,97558.20
2019-05-10T09:16:43.464Z,97557.16
2019-05-10T09:19:12.499Z,97561.12
2019-05-10T09:21:49.806Z,97563.52
2019-05-10T09:24:18.493Z,97560.74
2019-05-10T09:26:52.833Z,97563.09
2019-05-10T09:29:27.335Z,97570.00
2019-05-10T09:32:00.985Z,97568.08
2019-05-10T09:34:32.576Z,97561.05
2019-05-10T09:37:08.094Z,97558.89
2019-05-10T09:39:38.496Z,97561.36
2019-05-10T09:42:24.756Z,97552.03
2019-05-10T09:44:46.078Z,97553.66
2019-05-10T09:47:18.196Z,97541.02
2019-05-10T09:49:54.123Z,97537.22
2019-05-10T09:52:24.092Z,97543.53
2019-05-10T09:54:56.977Z,97551.80
2019-05-10T09:57:32.150Z,97544.95
2019-05-10T10:00:03.642Z,97546.44
2019-05-10T10:02:37.272Z,97555.98
2019-05-10T10:05:09.508Z,97557.05
2019-05-10T10:07:41.490Z,97550.48
2019-05-10T10:10:21.302Z,97554.74
2019-05-10T10:12:47.611Z,97561.66
2019-05-10T10:15:32.089Z,97558.94
2019-05-10T10:17:53.685Z,97564.86
2019-05-10T10:20:29.805Z,97560.80
2019-05-10T10:22:59.527Z,97559.13
2019-05-10T10:25:35.172Z,97573.51
2019-05-10T10:28:08.250Z,97565.35
2019-05-10T10:30:39.333Z,97560.19
2019-05-10T10:33:16.044Z,97559.27
2019-05-10T10:35:47.895Z,97560.98
2019-05-10T10:38:19.100Z,97563.75
2019-05-10T10:40:51.111Z,97563.22
2019-05-10T10:43:23.071Z,97564.92
2019-05-10T10:45:57.219Z,97569.80
2019-05-10T10:48:28.982Z,97573.25
2019-05-10T10:51:01.021Z,97570.12
2019-05-10T10:53:33.042Z,97563.88
2019-05-10T10:56:07.478Z,97565.26
2019-05-10T10:58:38.976Z,97566.28
2019-05-10T11:01:21.562Z,97563.69
2019-05-10T11:03:44.866Z,97561.25
2019-05-10T11:06:16.881Z,97556.81
2019-05-10T11:08:51.688Z,97557.41
2019-05-10T11:11:22.793Z,97561.03
2019-05-10T11:14:02.167Z,97559.63
2019-05-10T11:16:30.300Z,97563.56
2019-05-10T11:19:09.170Z,97561.59
2019-05-10T11:21:37.261Z,97556.91
2019-05-10T11:24:10.460Z,97560.36
2019-05-10T11:26:44.959Z,97559.48
2019-05-10T11:29:25.434Z,97555.44
2019-05-10T11:32:11.097Z,97557.81
2019-05-10T11:34:29.367Z,97547.22
2019-05-10T11:36:58.740Z,97551.39
2019-05-10T11:39:34.784Z,97546.00
2019-05-10T11:42:07.139Z,97549.23
2019-05-10T11:44:41.576Z,97534.88
2019-05-10T11:47:23.405Z,97547.94
2019-05-10T11:49:46.433Z,97547.51
2019-05-10T11:52:18.411Z,97550.44
2019-05-10T11:54:51.445Z,97546.55
2019-05-10T11:57:23.767Z,97559.74
2019-05-10T11:59:55.754Z,97558.56
2019-05-10T12:02:38.707Z,97561.13
2019-05-10T12:05:11.145Z,97565.06
2019-05-10T12:07:44.976Z,97573.24
2019-05-10T12:12:59.857Z,97571.48
2019-05-10T12:15:24.766Z,97571.25
2019-05-10T12:17:57.953Z,97565.78
2019-05-10T12:20:38.530Z,97569.72
2019-05-10T12:23:03.139Z,97572.02
2019-05-10T12:25:47.200Z,97571.33
2019-05-10T12:26:31.061Z,97569.59
2019-05-10T12:28:06.824Z,97574.69
2019-05-10T12:30:40.875Z,97568.30
2019-05-10T12:33:23.906Z,97571.88
2019-05-10T12:35:47.497Z,97567.16
2019-05-10T12:38:23.560Z,97571.80
2019-05-10T12:40:53.552Z,97573.81
2019-05-10T12:43:25.573Z,97567.17
2019-05-10T12:45:57.602Z,97566.48
2019-05-10T12:48:31.769Z,97576.27
2019-05-10T12:51:08.251Z,97571.73
2019-05-10T12:53:44.402Z,97573.72
2019-05-10T12:56:11.390Z,97575.75
2019-05-10T12:58:43.372Z,97577.85
2019-05-10T13:01:15.367Z,97580.88
2019-05-10T13:03:47.346Z,97573.20
2019-05-10T13:06:19.861Z,97577.20
2019-05-10T13:08:52.033Z,97579.23
2019-05-10T13:11:25.397Z,97571.08
2019-05-10T13:14:01.019Z,97577.69
2019-05-10T13:16:31.897Z,97579.77
2019-05-10T13:19:03.905Z,97576.33
2019-05-10T13:21:35.914Z,97577.55
2019-05-10T13:24:07.911Z,97572.67
2019-05-10T13:26:39.920Z,97573.66
2019-05-10T13:29:11.925Z,97571.02
2019-05-10T13:31:44.460Z,97570.09
2019-05-10T13:34:16.496Z,97577.80
2019-05-10T13:36:48.545Z,97573.43
2019-05-10T13:39:25.720Z,97569.91
2019-05-10T13:41:57.068Z,97565.83
2019-05-10T13:44:28.319Z,97565.03
2019-05-10T13:47:00.339Z,97565.30
2019-05-10T13:49:32.364Z,97569.61
2019-05-10T13:52:04.386Z,97567.02
2019-05-10T13:54:37.922Z,97571.63
2019-05-10T13:57:10.089Z,97569.84
2019-05-10T13:59:42.075Z,97572.67
2019-05-10T14:02:14.072Z,97569.34
2019-05-10T14:04:46.030Z,97576.33
2019-05-10T14:07:18.058Z,97576.95
2019-05-10T14:09:50.031Z,97581.21
2019-05-10T14:12:25.530Z,97581.33
2019-05-10T14:15:02.989Z,97590.80
2019-05-10T14:17:29.868Z,97589.94
2019-05-10T14:20:01.882Z,97587.59
2019-05-10T14:22:33.898Z,97594.33
2019-05-10T14:25:06.229Z,97595.80
2019-05-10T14:27:38.724Z,97596.31
2019-05-10T14:30:13.341Z,97609.39
2019-05-10T14:32:44.772Z,97615.97
2019-05-10T14:35:22.667Z,97627.59
2019-05-10T14:37:50.712Z,97622.25
2019-05-10T14:40:30.787Z,97623.45
2019-05-10T14:42:56.651Z,97642.70
2019-05-10T14:45:28.621Z,97644.16
2019-05-10T14:48:00.815Z,97641.75
2019-05-10T14:50:32.833Z,97635.59
2019-05-10T14:53:04.853Z,97635.30
2019-05-10T14:55:37.090Z,97649.09
2019-05-10T14:58:09.158Z,97642.72
2019-05-10T15:00:41.166Z,97647.03
2019-05-10T15:03:13.176Z,97643.09
2019-05-10T15:05:48.788Z,97651.80
2019-05-10T15:08:19.101Z,97646.05
2019-05-10T15:10:51.103Z,97649.02
2019-05-10T15:13:25.924Z,97655.31
2019-05-10T15:15:57.077Z,97655.16
2019-05-10T15:18:29.078Z,97656.53
2019-05-10T15:21:01.069Z,97655.88
2019-05-10T15:23:33.097Z,97651.38
2019-05-10T15:26:11.504Z,97648.81
2019-05-10T15:28:40.203Z,97650.27
2019-05-10T15:31:12.996Z,97652.34
2019-05-10T15:33:45.039Z,97645.56
2019-05-10T15:36:17.095Z,97645.02
2019-05-10T15:38:51.941Z,97654.13
2019-05-10T15:41:24.054Z,97652.58
2019-05-10T15:43:56.272Z,97652.84
2019-05-10T15:46:35.700Z,97655.33
2019-05-10T15:49:02.245Z,97654.88
2019-05-10T15:51:36.566Z,97655.00
2019-05-10T15:54:08.203Z,97640.40
2019-05-10T15:56:41.487Z,97636.33
2019-05-10T15:59:19.223Z,97642.62
2019-05-10T16:01:48.076Z,97642.09
2019-05-10T16:04:20.087Z,97641.34
2019-05-10T16:06:52.120Z,97644.84
2019-05-10T16:09:24.105Z,97640.55
2019-05-10T16:12:01.669Z,97641.16
2019-05-10T16:14:33.208Z,97628.34
2019-05-10T16:17:04.052Z,97624.14
2019-05-10T16:19:36.043Z,97618.89
2019-05-10T16:22:08.075Z,97616.70
2019-05-10T16:24:40.058Z,97616.83
2019-05-10T16:27:12.083Z,97617.01
2019-05-10T16:29:44.116Z,97627.61
2019-05-10T16:32:16.189Z,97626.71
2019-05-10T16:34:48.207Z,97623.41
2019-05-10T16:37:20.206Z,97623.37
2019-05-10T16:39:52.175Z,97624.48
2019-05-10T16:42:27.890Z,97621.38
2019-05-10T16:44:58.153Z,97617.94
2019-05-10T16:47:30.217Z,97623.67
2019-05-10T16:50:02.289Z,97626.50
2019-05-10T16:52:34.300Z,97622.57
2019-05-10T16:55:09.450Z,97615.25
2019-05-10T16:57:40.391Z,97624.87
2019-05-10T17:00:12.714Z,97626.99
2019-05-10T17:02:44.741Z,97620.23
2019-05-10T17:05:17.468Z,97617.14
2019-05-10T17:07:53.731Z,97609.66
2019-05-10T17:10:26.819Z,97613.59
2019-05-10T17:13:04.295Z,97620.13
2019-05-10T17:15:33.928Z,97617.56
2019-05-10T17:18:10.683Z,97619.59
2019-05-10T17:20:39.264Z,97620.59
2019-05-10T17:23:11.418Z,97625.92
2019-05-10T17:25:43.404Z,97632.42
2019-05-10T17:28:15.443Z,97627.83
2019-05-10T17:30:47.482Z,97632.56
2019-05-10T17:33:19.497Z,97630.47
2019-05-10T17:35:51.512Z,97619.84
2019-05-10T17:38:26.437Z,97621.09
2019-05-10T17:40:58.451Z,97629.11
2019-05-10T17:43:30.428Z,97625.47
2019-05-10T17:46:02.483Z,97623.83
2019-05-10T17:48:34.489Z,97626.17
2019-05-10T17:51:06.509Z,97616.16
2019-05-10T17:53:38.526Z,97619.66
2019-05-10T17:56:10.533Z,97625.66
2019-05-10T17:58:42.557Z,97623.36
2019-05-10T18:01:14.543Z,97615.73
2019-05-10T18:03:46.579Z,97611.06
2019-05-10T18:06:24.073Z,97613.88
2019-05-10T18:08:52.542Z,97619.59
2019-05-10T18:11:24.605Z,97621.77
2019-05-10T18:13:56.612Z,97624.70
2019-05-10T18:16:28.609Z,97628.98
2019-05-10T18:19:00.607Z,97616.84
2019-05-10T18:21:32.627Z,97611.27
2019-05-10T18:24:04.661Z,97617.40
2019-05-10T18:26:39.691Z,97621.19
2019-05-10T18:29:10.588Z,97617.95
2019-05-10T18:31:55.113Z,97612.70
2019-05-10T18:34:16.633Z,97619.56
2019-05-10T18:36:51.484Z,97622.83
2019-05-10T18:39:22.707Z,97615.00
2019-05-10T18:41:54.739Z,97613.95
2019-05-10T18:44:26.764Z,97615.87
2019-05-10T18:46:58.773Z,97614.85
2019-05-10T18:49:30.795Z,97614.36
2019-05-10T18:52:04.598Z,97615.95
2019-05-10T18:54:38.448Z,97618.30
2019-05-10T18:57:12.260Z,97621.79
2019-05-10T18:59:45.321Z,97621.27
2019-05-10T19:02:19.970Z,97629.78
2019-05-10T19:04:54.093Z,97636.05
2019-05-10T19:07:26.262Z,97636.28
2019-05-10T19:09:58.283Z,97638.75
2019-05-10T19:12:33.558Z,97645.02
2019-05-10T19:15:12.651Z,97640.97
2019-05-10T19:17:45.824Z,97636.34
2019-05-10T19:20:18.378Z,97631.95
2019-05-10T19:22:50.153Z,97632.95
2019-05-10T19:25:22.162Z,97637.81
2019-05-10T19:27:54.129Z,97627.62
2019-05-10T19:30:26.187Z,97634.59
2019-05-10T19:32:58.249Z,97637.00
2019-05-10T19:35:35.997Z,97640.39
2019-05-10T19:38:04.319Z,97636.70
2019-05-10T19:40:36.386Z,97641.50
2019-05-10T19:43:08.363Z,97644.69
2019-05-10T19:45:40.395Z,97634.12
2019-05-10T19:48:12.408Z,97637.58
2019-05-10T19:50:44.457Z,97641.98
2019-05-10T19:53:16.498Z,97648.09
2019-05-10T19:55:51.417Z,97652.44
2019-05-10T19:58:26.428Z,97660.52
2019-05-10T20:00:56.362Z,97653.97
2019-05-10T20:03:28.369Z,97654.84
2019-05-10T20:06:00.441Z,97656.86
2019-05-10T20:08:32.507Z,97655.94
2019-05-10T20:11:04.542Z,97661.13
2019-05-10T20:13:36.567Z,97665.38
2019-05-10T20:16:08.599Z,97660.25
2019-05-10T20:18:40.592Z,97659.79
2019-05-10T20:21:12.615Z,97668.68
2019-05-10T20:23:44.654Z,97669.88
2019-05-10T20:26:16.659Z,97661.31
2019-05-10T20:28:48.739Z,97665.79
2019-05-10T20:31:20.805Z,97660.16
2019-05-10T20:33:52.826Z,97660.89
2019-05-10T20:36:24.915Z,97665.66
2019-05-10T20:38:56.952Z,97669.50
2019-05-10T20:41:28.973Z,97672.62
2019-05-10T20:44:00.978Z,97671.74
2019-05-10T20:46:33.015Z,97671.97
2019-05-10T20:49:05.076Z,97671.84
2019-05-10T20:51:37.166Z,97657.92
2019-05-10T20:54:09.159Z,97662.13
2019-05-10T20:56:41.168Z,97664.55
2019-05-10T20:59:13.145Z,97665.34
2019-05-10T21:01:45.143Z,97667.49
2019-05-10T21:04:17.153Z,97672.84
2019-05-10T21:06:49.176Z,97669.18
2019-05-10T21:09:21.153Z,97677.02
2019-05-10T21:11:53.172Z,97669.59
2019-05-10T21:14:25.207Z,97656.95
2019-05-10T21:16:57.279Z,97659.52
2019-05-10T21:19:29.281Z,97647.44
2019-05-10T21:22:01.290Z,97644.92
2019-05-10T21:24:34.647Z,97654.56
2019-05-10T21:27:06.652Z,97660.38
2019-05-10T21:29:38.755Z,97671.63
2019-05-10T21:32:10.743Z,97672.56
2019-05-10T21:34:42.755Z,97667.93
2019-05-10T21:37:14.730Z,97655.98
2019-05-10T21:39:46.757Z,97655.70
2019-05-10T21:42:18.768Z,97658.81
2019-05-10T21:44:50.829Z,97656.44
2019-05-10T21:47:22.890Z,97658.36
2019-05-10T21:49:54.837Z,97642.48
2019-05-10T21:52:26.825Z,97640.56
2019-05-10T21:54:58.805Z,97634.16
2019-05-10T21:57:30.771Z,97633.27
2019-05-10T22:00:03.958Z,97633.91
2019-05-10T22:02:35.977Z,97637.29
2019-05-10T22:05:07.998Z,97621.63
2019-05-10T22:07:39.994Z,97615.10
2019-05-10T22:10:12.000Z,97608.68
2019-05-10T22:12:43.974Z,97596.88
2019-05-10T22:15:15.984Z,97600.04
2019-05-10T22:17:47.996Z,97596.61
2019-05-10T22:20:20.010Z,97586.63
2019-05-10T22:22:52.039Z,97576.70
2019-05-10T22:25:24.103Z,97575.75
2019-05-10T22:27:56.076Z,97582.91
2019-05-10T22:30:28.063Z,97590.82
2019-05-10T22:33:00.069Z,97601.59
2019-05-10T22:35:32.090Z,97594.22
2019-05-10T22:38:04.097Z,97601.09
2019-05-10T22:40:36.105Z,97594.31
2019-05-10T22:43:08.065Z,97599.48
2019-05-10T22:45:40.087Z,97588.91
2019-05-10T22:48:12.026Z,97595.91
2019-05-10T22:50:44.035Z,97594.02
2019-05-10T22:53:15.998Z,97595.62
2019-05-10T22:55:48.018Z,97594.05
2019-05-10T22:58:20.000Z,97592.01
2019-05-10T23:00:52.004Z,97592.28
2019-05-10T23:03:24.774Z,97598.45
2019-05-10T23:05:57.020Z,97601.23
2019-05-10T23:08:29.050Z,97593.56
2019-05-10T23:11:01.282Z,97595.91
2019-05-10T23:13:33.312Z,97589.11
2019-05-10T23:16:05.329Z,97587.73
2019-05-10T23:18:37.356Z,97583.69
2019-05-10T23:21:09.355Z,97581.03
2019-05-10T23:23:41.350Z,97579.70
2019-05-10T23:26:13.351Z,97575.14
2019-05-10T23:28:45.338Z,97586.49
2019-05-10T23:31:17.291Z,97565.48
2019-05-10T23:33:50.834Z,97565.48
2019-05-10T23:36:22.818Z,97564.35
2019-05-10T23:38:54.800Z,97564.56
2019-05-10T23:41:26.781Z,97551.41
2019-05-10T23:43:58.789Z,97562.58
2019-05-10T23:46:30.798Z,97570.89
2019-05-10T23:49:02.785Z,97571.05
2019-05-10T23:51:34.773Z,97571.05
2019-05-10T23:54:06.799Z,97569.75
2019-05-10T23:56:38.751Z,97559.81
2019-05-10T23:59:10.728Z,97545.67
